This is the latest recevied weather packets stored in our database for station/object I3RKE-10. If no packets are shown the sender has not sent any weather packets the latest 10 day(s).
| Time | Temp. | Humidity | Pressure | Rain* | Wind** | Luminosity | Snow |
|---|---|---|---|---|---|---|---|
| 1777773387 | 11.67° C | 66% | 1013.3 hPa | - | - | - | - |
| 1777770687 | 11.67° C | 64% | 1013.4 hPa | - | - | - | - |
| 1777769787 | 11.67° C | 64% | 1013.4 hPa | - | - | - | - |
| 1777768887 | 12.22° C | 63% | 1013.5 hPa | - | - | - | - |
| 1777767987 | 12.22° C | 62% | 1013.7 hPa | - | - | - | - |
| 1777766186 | 12.78° C | 61% | 1013.8 hPa | - | - | - | - |
| 1777764386 | 13.33° C | 59% | 1014 hPa | - | - | - | - |
| 1777761686 | 13.89° C | 57% | 1014.1 hPa | - | - | - | - |
| 1777760786 | 13.89° C | 57% | 1014.2 hPa | - | - | - | - |
| 1777759886 | 13.89° C | 56% | 1014.2 hPa | - | - | - | - |
| 1777759060 | 13.89° C | 57% | 1014.2 hPa | - | - | - | - |
| 1777757185 | 15° C | 54% | 1014.1 hPa | - | - | - | - |
| 1777753585 | 16.11° C | 51% | 1014.1 hPa | - | - | - | - |
| 1777752684 | 16.11° C | 51% | 1014.1 hPa | - | - | - | - |
| 1777751784 | 17.22° C | 48% | 1014.2 hPa | - | - | - | - |
| 1777750884 | 17.78° C | 47% | 1014 hPa | - | - | - | - |
| 1777749983 | 19.44° C | 43% | 1013.9 hPa | - | - | - | - |
| 1777749083 | 20° C | 43% | 1013.9 hPa | - | - | - | - |
| 1777746383 | 21.67° C | 38% | 1013.3 hPa | - | - | - | - |
| 1777745483 | 23.33° C | 34% | 1013.4 hPa | - | - | - | - |
| 1777742783 | 31.11° C | 19% | 1013.3 hPa | - | - | - | - |
| 1777740983 | 32.78° C | 17% | 1013.4 hPa | - | - | - | - |
| 1777739182 | 34.44° C | 15% | 1013.5 hPa | - | - | - | - |
| 1777738282 | 37.22° C | 13% | 1013.5 hPa | - | - | - | - |
| 1777736482 | 35.56° C | 14% | 1013.9 hPa | - | - | - | - |
* Rain since midnight (hover to see other rain measurements)
** Current wind speed in m/s (hover to see current wind gust speed)